sensor_id;sensor_type;location;lat;lon;timestamp;P1;durP1;ratioP1;P2;durP2;ratioP2
22378;SDS011;11357;49.990;7.370;2023-03-14T00:01:51;12.60;;;2.90;;
22378;SDS011;11357;49.990;7.370;2023-03-14T00:04:17;12.47;;;2.57;;
22378;SDS011;11357;49.990;7.370;2023-03-14T00:06:43;12.20;;;2.97;;
22378;SDS011;11357;49.990;7.370;2023-03-14T00:09:08;7.80;;;3.27;;
22378;SDS011;11357;49.990;7.370;2023-03-14T00:11:34;14.17;;;5.90;;
22378;SDS011;11357;49.990;7.370;2023-03-14T00:14:00;23.00;;;19.83;;
22378;SDS011;11357;49.990;7.370;2023-03-14T00:16:25;10.37;;;3.00;;
22378;SDS011;11357;49.990;7.370;2023-03-14T00:18:51;14.20;;;3.73;;
22378;SDS011;11357;49.990;7.370;2023-03-14T00:21:17;7.27;;;2.87;;
22378;SDS011;11357;49.990;7.370;2023-03-14T00:23:43;9.47;;;8.13;;
22378;SDS011;11357;49.990;7.370;2023-03-14T00:26:13;13.63;;;7.80;;
22378;SDS011;11357;49.990;7.370;2023-03-14T00:28:41;14.37;;;8.70;;
22378;SDS011;11357;49.990;7.370;2023-03-14T00:31:08;19.10;;;4.73;;
22378;SDS011;11357;49.990;7.370;2023-03-14T00:33:34;6.80;;;3.63;;
22378;SDS011;11357;49.990;7.370;2023-03-14T00:36:01;12.90;;;3.40;;
22378;SDS011;11357;49.990;7.370;2023-03-14T00:38:30;9.27;;;4.43;;
22378;SDS011;11357;49.990;7.370;2023-03-14T00:40:57;13.87;;;9.80;;
22378;SDS011;11357;49.990;7.370;2023-03-14T00:43:23;8.13;;;3.37;;
22378;SDS011;11357;49.990;7.370;2023-03-14T00:45:50;11.27;;;3.50;;
22378;SDS011;11357;49.990;7.370;2023-03-14T00:48:17;12.50;;;3.50;;
22378;SDS011;11357;49.990;7.370;2023-03-14T00:50:43;9.70;;;2.67;;
22378;SDS011;11357;49.990;7.370;2023-03-14T00:53:09;8.93;;;3.20;;
22378;SDS011;11357;49.990;7.370;2023-03-14T00:55:39;11.50;;;2.30;;
22378;SDS011;11357;49.990;7.370;2023-03-14T00:58:05;14.13;;;4.33;;
22378;SDS011;11357;49.990;7.370;2023-03-14T01:00:31;10.97;;;2.67;;
22378;SDS011;11357;49.990;7.370;2023-03-14T01:02:57;12.47;;;2.37;;
22378;SDS011;11357;49.990;7.370;2023-03-14T01:05:22;10.87;;;2.63;;
22378;SDS011;11357;49.990;7.370;2023-03-14T01:07:48;4.60;;;2.97;;
22378;SDS011;11357;49.990;7.370;2023-03-14T01:10:14;8.10;;;3.60;;
22378;SDS011;11357;49.990;7.370;2023-03-14T01:12:40;17.13;;;6.03;;
22378;SDS011;11357;49.990;7.370;2023-03-14T01:15:06;6.53;;;1.60;;
22378;SDS011;11357;49.990;7.370;2023-03-14T01:17:32;12.43;;;2.47;;
22378;SDS011;11357;49.990;7.370;2023-03-14T01:19:58;7.13;;;2.27;;
22378;SDS011;11357;49.990;7.370;2023-03-14T01:22:24;10.57;;;2.63;;
22378;SDS011;11357;49.990;7.370;2023-03-14T01:24:50;7.10;;;2.33;;
22378;SDS011;11357;49.990;7.370;2023-03-14T01:27:16;12.07;;;2.90;;
22378;SDS011;11357;49.990;7.370;2023-03-14T01:29:41;9.77;;;2.47;;
22378;SDS011;11357;49.990;7.370;2023-03-14T01:32:07;12.63;;;3.87;;
22378;SDS011;11357;49.990;7.370;2023-03-14T01:34:33;7.00;;;3.63;;
22378;SDS011;11357;49.990;7.370;2023-03-14T01:36:58;11.67;;;2.83;;
22378;SDS011;11357;49.990;7.370;2023-03-14T01:39:24;12.73;;;4.07;;
22378;SDS011;11357;49.990;7.370;2023-03-14T01:41:49;10.67;;;1.77;;
22378;SDS011;11357;49.990;7.370;2023-03-14T01:44:15;11.50;;;2.20;;
22378;SDS011;11357;49.990;7.370;2023-03-14T01:46:41;7.10;;;1.73;;
22378;SDS011;11357;49.990;7.370;2023-03-14T01:49:19;8.53;;;2.03;;
22378;SDS011;11357;49.990;7.370;2023-03-14T01:52:03;6.70;;;2.13;;
22378;SDS011;11357;49.990;7.370;2023-03-14T01:54:42;3.77;;;1.67;;
22378;SDS011;11357;49.990;7.370;2023-03-14T01:57:12;6.40;;;1.70;;
22378;SDS011;11357;49.990;7.370;2023-03-14T01:59:43;6.43;;;2.07;;
22378;SDS011;11357;49.990;7.370;2023-03-14T02:02:11;9.90;;;2.10;;
22378;SDS011;11357;49.990;7.370;2023-03-14T02:04:39;4.87;;;2.43;;
22378;SDS011;11357;49.990;7.370;2023-03-14T02:07:09;8.17;;;4.93;;
22378;SDS011;11357;49.990;7.370;2023-03-14T02:09:39;6.53;;;1.70;;
22378;SDS011;11357;49.990;7.370;2023-03-14T02:12:07;9.53;;;2.17;;
22378;SDS011;11357;49.990;7.370;2023-03-14T02:14:35;7.33;;;1.93;;
22378;SDS011;11357;49.990;7.370;2023-03-14T02:17:02;9.40;;;1.97;;
22378;SDS011;11357;49.990;7.370;2023-03-14T02:22:14;10.60;;;2.00;;
22378;SDS011;11357;49.990;7.370;2023-03-14T02:29:43;4.03;;;1.60;;
22378;SDS011;11357;49.990;7.370;2023-03-14T02:32:16;8.63;;;2.47;;
22378;SDS011;11357;49.990;7.370;2023-03-14T02:34:42;5.43;;;1.73;;
22378;SDS011;11357;49.990;7.370;2023-03-14T02:37:11;8.57;;;1.97;;
22378;SDS011;11357;49.990;7.370;2023-03-14T02:39:40;5.77;;;1.70;;
22378;SDS011;11357;49.990;7.370;2023-03-14T02:42:09;9.63;;;1.70;;
22378;SDS011;11357;49.990;7.370;2023-03-14T02:44:36;8.87;;;2.10;;
22378;SDS011;11357;49.990;7.370;2023-03-14T02:47:12;6.07;;;1.90;;
22378;SDS011;11357;49.990;7.370;2023-03-14T02:49:37;6.27;;;1.70;;
22378;SDS011;11357;49.990;7.370;2023-03-14T02:52:03;8.33;;;2.00;;
22378;SDS011;11357;49.990;7.370;2023-03-14T02:54:29;6.97;;;1.50;;
22378;SDS011;11357;49.990;7.370;2023-03-14T02:56:54;5.83;;;1.53;;
22378;SDS011;11357;49.990;7.370;2023-03-14T02:59:20;5.90;;;2.00;;
22378;SDS011;11357;49.990;7.370;2023-03-14T03:01:46;4.33;;;1.93;;
22378;SDS011;11357;49.990;7.370;2023-03-14T03:04:11;8.80;;;2.63;;
22378;SDS011;11357;49.990;7.370;2023-03-14T03:06:37;10.23;;;2.87;;
22378;SDS011;11357;49.990;7.370;2023-03-14T03:09:02;5.80;;;2.30;;
22378;SDS011;11357;49.990;7.370;2023-03-14T03:11:28;6.37;;;2.43;;
22378;SDS011;11357;49.990;7.370;2023-03-14T03:13:54;6.47;;;1.83;;
22378;SDS011;11357;49.990;7.370;2023-03-14T03:16:20;4.43;;;2.03;;
22378;SDS011;11357;49.990;7.370;2023-03-14T03:18:45;6.50;;;2.50;;
22378;SDS011;11357;49.990;7.370;2023-03-14T03:21:11;10.10;;;2.77;;
22378;SDS011;11357;49.990;7.370;2023-03-14T03:23:36;9.27;;;2.70;;
22378;SDS011;11357;49.990;7.370;2023-03-14T03:26:02;5.77;;;1.77;;
22378;SDS011;11357;49.990;7.370;2023-03-14T03:28:28;8.83;;;1.90;;
22378;SDS011;11357;49.990;7.370;2023-03-14T03:30:54;6.03;;;2.23;;
22378;SDS011;11357;49.990;7.370;2023-03-14T03:33:19;9.00;;;2.43;;
22378;SDS011;11357;49.990;7.370;2023-03-14T03:35:47;5.00;;;1.93;;
22378;SDS011;11357;49.990;7.370;2023-03-14T03:38:14;7.43;;;5.03;;
22378;SDS011;11357;49.990;7.370;2023-03-14T03:40:40;11.67;;;2.37;;
22378;SDS011;11357;49.990;7.370;2023-03-14T03:43:06;9.10;;;3.07;;
22378;SDS011;11357;49.990;7.370;2023-03-14T03:45:32;10.30;;;4.73;;
22378;SDS011;11357;49.990;7.370;2023-03-14T03:47:57;5.17;;;3.47;;
22378;SDS011;11357;49.990;7.370;2023-03-14T03:50:23;8.07;;;6.43;;
22378;SDS011;11357;49.990;7.370;2023-03-14T03:52:49;4.80;;;3.23;;
22378;SDS011;11357;49.990;7.370;2023-03-14T03:55:14;7.60;;;6.13;;
22378;SDS011;11357;49.990;7.370;2023-03-14T03:57:40;9.27;;;7.87;;
22378;SDS011;11357;49.990;7.370;2023-03-14T04:00:06;4.93;;;3.53;;
22378;SDS011;11357;49.990;7.370;2023-03-14T04:02:34;5.17;;;4.10;;
22378;SDS011;11357;49.990;7.370;2023-03-14T04:04:59;13.30;;;12.13;;
22378;SDS011;11357;49.990;7.370;2023-03-14T04:07:25;3.77;;;1.37;;
22378;SDS011;11357;49.990;7.370;2023-03-14T04:09:51;2.73;;;1.67;;
22378;SDS011;11357;49.990;7.370;2023-03-14T04:12:16;2.70;;;1.23;;
22378;SDS011;11357;49.990;7.370;2023-03-14T04:14:42;2.67;;;1.53;;
22378;SDS011;11357;49.990;7.370;2023-03-14T04:17:10;3.83;;;2.10;;
22378;SDS011;11357;49.990;7.370;2023-03-14T04:19:35;3.37;;;1.50;;
22378;SDS011;11357;49.990;7.370;2023-03-14T04:22:01;3.40;;;1.83;;
22378;SDS011;11357;49.990;7.370;2023-03-14T04:24:27;2.10;;;1.50;;
22378;SDS011;11357;49.990;7.370;2023-03-14T04:26:53;2.87;;;1.93;;
22378;SDS011;11357;49.990;7.370;2023-03-14T04:29:19;2.67;;;2.10;;
22378;SDS011;11357;49.990;7.370;2023-03-14T04:31:44;8.03;;;3.47;;
22378;SDS011;11357;49.990;7.370;2023-03-14T04:34:10;3.37;;;2.67;;
22378;SDS011;11357;49.990;7.370;2023-03-14T04:36:36;3.33;;;2.93;;
22378;SDS011;11357;49.990;7.370;2023-03-14T04:39:01;2.47;;;1.90;;
22378;SDS011;11357;49.990;7.370;2023-03-14T04:41:29;22.17;;;19.43;;
22378;SDS011;11357;49.990;7.370;2023-03-14T04:43:54;2.37;;;2.07;;
22378;SDS011;11357;49.990;7.370;2023-03-14T04:46:20;6.77;;;4.90;;
22378;SDS011;11357;49.990;7.370;2023-03-14T04:48:46;26.33;;;22.60;;
22378;SDS011;11357;49.990;7.370;2023-03-14T04:51:12;5.23;;;4.73;;
22378;SDS011;11357;49.990;7.370;2023-03-14T04:53:37;16.33;;;14.97;;
22378;SDS011;11357;49.990;7.370;2023-03-14T04:56:03;6.97;;;6.53;;
22378;SDS011;11357;49.990;7.370;2023-03-14T04:58:29;7.97;;;7.43;;
22378;SDS011;11357;49.990;7.370;2023-03-14T05:00:57;46.57;;;27.97;;
22378;SDS011;11357;49.990;7.370;2023-03-14T05:03:27;4.67;;;2.70;;
22378;SDS011;11357;49.990;7.370;2023-03-14T05:05:53;3.37;;;3.13;;
22378;SDS011;11357;49.990;7.370;2023-03-14T05:08:20;6.53;;;4.37;;
22378;SDS011;11357;49.990;7.370;2023-03-14T05:10:51;4.40;;;2.17;;
22378;SDS011;11357;49.990;7.370;2023-03-14T05:13:21;6.13;;;5.83;;
22378;SDS011;11357;49.990;7.370;2023-03-14T05:15:47;1.83;;;1.73;;
22378;SDS011;11357;49.990;7.370;2023-03-14T05:18:13;1.03;;;0.93;;
22378;SDS011;11357;49.990;7.370;2023-03-14T05:20:39;2.03;;;1.87;;
22378;SDS011;11357;49.990;7.370;2023-03-14T05:23:05;2.57;;;1.77;;
22378;SDS011;11357;49.990;7.370;2023-03-14T05:25:30;3.53;;;3.33;;
22378;SDS011;11357;49.990;7.370;2023-03-14T05:27:56;5.93;;;5.40;;
22378;SDS011;11357;49.990;7.370;2023-03-14T05:30:22;6.07;;;5.47;;
22378;SDS011;11357;49.990;7.370;2023-03-14T05:32:48;4.43;;;2.80;;
22378;SDS011;11357;49.990;7.370;2023-03-14T05:35:13;2.27;;;1.33;;
22378;SDS011;11357;49.990;7.370;2023-03-14T05:37:40;3.73;;;1.07;;
22378;SDS011;11357;49.990;7.370;2023-03-14T05:40:05;10.33;;;9.43;;
22378;SDS011;11357;49.990;7.370;2023-03-14T05:42:34;5.30;;;4.90;;
22378;SDS011;11357;49.990;7.370;2023-03-14T05:45:00;1.60;;;1.50;;
22378;SDS011;11357;49.990;7.370;2023-03-14T05:47:25;3.47;;;2.10;;
22378;SDS011;11357;49.990;7.370;2023-03-14T05:49:51;51.10;;;24.23;;
22378;SDS011;11357;49.990;7.370;2023-03-14T05:52:17;4.00;;;1.67;;
22378;SDS011;11357;49.990;7.370;2023-03-14T05:54:43;1.43;;;1.00;;
22378;SDS011;11357;49.990;7.370;2023-03-14T05:57:08;2.40;;;1.73;;
22378;SDS011;11357;49.990;7.370;2023-03-14T05:59:34;3.57;;;1.03;;
22378;SDS011;11357;49.990;7.370;2023-03-14T06:02:00;3.73;;;2.10;;
22378;SDS011;11357;49.990;7.370;2023-03-14T06:04:28;2.87;;;1.33;;
22378;SDS011;11357;49.990;7.370;2023-03-14T06:06:53;2.53;;;2.30;;
22378;SDS011;11357;49.990;7.370;2023-03-14T06:09:20;6.77;;;2.37;;
22378;SDS011;11357;49.990;7.370;2023-03-14T06:11:50;2.47;;;1.83;;
22378;SDS011;11357;49.990;7.370;2023-03-14T06:14:15;3.83;;;2.77;;
22378;SDS011;11357;49.990;7.370;2023-03-14T06:16:41;16.20;;;14.47;;
22378;SDS011;11357;49.990;7.370;2023-03-14T06:19:07;3.27;;;1.00;;
22378;SDS011;11357;49.990;7.370;2023-03-14T06:21:33;2.97;;;1.10;;
22378;SDS011;11357;49.990;7.370;2023-03-14T06:23:58;2.60;;;1.80;;
22378;SDS011;11357;49.990;7.370;2023-03-14T06:26:24;7.40;;;2.90;;
22378;SDS011;11357;49.990;7.370;2023-03-14T06:28:50;2.10;;;1.73;;
22378;SDS011;11357;49.990;7.370;2023-03-14T06:31:16;2.57;;;1.93;;
22378;SDS011;11357;49.990;7.370;2023-03-14T06:33:42;4.27;;;1.97;;
22378;SDS011;11357;49.990;7.370;2023-03-14T06:36:07;2.33;;;1.90;;
22378;SDS011;11357;49.990;7.370;2023-03-14T06:38:33;1.87;;;1.23;;
22378;SDS011;11357;49.990;7.370;2023-03-14T06:41:02;6.77;;;6.20;;
22378;SDS011;11357;49.990;7.370;2023-03-14T06:43:32;6.17;;;4.03;;
22378;SDS011;11357;49.990;7.370;2023-03-14T06:45:57;2.17;;;1.27;;
22378;SDS011;11357;49.990;7.370;2023-03-14T06:48:23;2.57;;;1.70;;
22378;SDS011;11357;49.990;7.370;2023-03-14T06:50:49;2.40;;;1.70;;
22378;SDS011;11357;49.990;7.370;2023-03-14T06:53:14;4.40;;;4.10;;
22378;SDS011;11357;49.990;7.370;2023-03-14T06:55:40;5.20;;;3.50;;
22378;SDS011;11357;49.990;7.370;2023-03-14T06:58:08;7.50;;;6.87;;
22378;SDS011;11357;49.990;7.370;2023-03-14T07:00:34;10.57;;;9.87;;
22378;SDS011;11357;49.990;7.370;2023-03-14T07:03:02;2.13;;;1.40;;
22378;SDS011;11357;49.990;7.370;2023-03-14T07:05:28;1.23;;;1.10;;
22378;SDS011;11357;49.990;7.370;2023-03-14T07:07:54;5.77;;;4.67;;
22378;SDS011;11357;49.990;7.370;2023-03-14T07:10:20;2.70;;;2.27;;
22378;SDS011;11357;49.990;7.370;2023-03-14T07:12:45;3.80;;;2.20;;
22378;SDS011;11357;49.990;7.370;2023-03-14T07:15:11;2.13;;;1.97;;
22378;SDS011;11357;49.990;7.370;2023-03-14T07:17:37;1.53;;;1.43;;
22378;SDS011;11357;49.990;7.370;2023-03-14T07:20:03;2.00;;;1.10;;
22378;SDS011;11357;49.990;7.370;2023-03-14T07:22:29;0.83;;;0.83;;
22378;SDS011;11357;49.990;7.370;2023-03-14T07:24:55;4.13;;;1.30;;
22378;SDS011;11357;49.990;7.370;2023-03-14T07:27:21;1.97;;;1.00;;
22378;SDS011;11357;49.990;7.370;2023-03-14T07:29:47;2.67;;;2.43;;
22378;SDS011;11357;49.990;7.370;2023-03-14T07:32:13;4.40;;;1.70;;
22378;SDS011;11357;49.990;7.370;2023-03-14T07:34:40;2.00;;;1.83;;
22378;SDS011;11357;49.990;7.370;2023-03-14T07:37:09;2.53;;;1.03;;
22378;SDS011;11357;49.990;7.370;2023-03-14T07:39:35;2.03;;;1.20;;
22378;SDS011;11357;49.990;7.370;2023-03-14T07:42:01;2.43;;;1.07;;
22378;SDS011;11357;49.990;7.370;2023-03-14T07:44:27;2.67;;;1.77;;
22378;SDS011;11357;49.990;7.370;2023-03-14T07:46:52;2.90;;;2.10;;
22378;SDS011;11357;49.990;7.370;2023-03-14T07:49:18;3.70;;;3.57;;
22378;SDS011;11357;49.990;7.370;2023-03-14T07:51:47;2.47;;;2.27;;
22378;SDS011;11357;49.990;7.370;2023-03-14T07:54:13;6.53;;;3.67;;
22378;SDS011;11357;49.990;7.370;2023-03-14T07:56:39;3.47;;;2.70;;
22378;SDS011;11357;49.990;7.370;2023-03-14T07:59:05;2.77;;;2.57;;
22378;SDS011;11357;49.990;7.370;2023-03-14T08:01:30;3.07;;;1.87;;
22378;SDS011;11357;49.990;7.370;2023-03-14T08:03:56;2.10;;;1.77;;
22378;SDS011;11357;49.990;7.370;2023-03-14T08:06:22;6.00;;;5.70;;
22378;SDS011;11357;49.990;7.370;2023-03-14T08:08:47;3.77;;;3.57;;
22378;SDS011;11357;49.990;7.370;2023-03-14T08:11:13;2.37;;;2.17;;
22378;SDS011;11357;49.990;7.370;2023-03-14T08:13:39;1.33;;;1.23;;
22378;SDS011;11357;49.990;7.370;2023-03-14T08:16:05;2.37;;;1.73;;
22378;SDS011;11357;49.990;7.370;2023-03-14T08:18:31;2.23;;;0.90;;
22378;SDS011;11357;49.990;7.370;2023-03-14T08:20:56;1.30;;;0.93;;
22378;SDS011;11357;49.990;7.370;2023-03-14T08:23:23;2.90;;;2.70;;
22378;SDS011;11357;49.990;7.370;2023-03-14T08:25:51;2.63;;;2.50;;
22378;SDS011;11357;49.990;7.370;2023-03-14T08:28:17;1.40;;;1.33;;
22378;SDS011;11357;49.990;7.370;2023-03-14T08:30:43;4.20;;;2.20;;
22378;SDS011;11357;49.990;7.370;2023-03-14T08:33:09;2.17;;;1.20;;
22378;SDS011;11357;49.990;7.370;2023-03-14T08:35:35;1.77;;;1.63;;
22378;SDS011;11357;49.990;7.370;2023-03-14T08:38:02;1.60;;;1.17;;
22378;SDS011;11357;49.990;7.370;2023-03-14T08:40:28;2.90;;;2.70;;
22378;SDS011;11357;49.990;7.370;2023-03-14T08:42:54;2.17;;;1.70;;
22378;SDS011;11357;49.990;7.370;2023-03-14T08:45:20;1.57;;;1.10;;
22378;SDS011;11357;49.990;7.370;2023-03-14T08:47:46;1.77;;;1.50;;
22378;SDS011;11357;49.990;7.370;2023-03-14T08:50:12;1.63;;;1.27;;
22378;SDS011;11357;49.990;7.370;2023-03-14T08:52:38;0.63;;;0.63;;
22378;SDS011;11357;49.990;7.370;2023-03-14T08:55:05;0.73;;;0.53;;
22378;SDS011;11357;49.990;7.370;2023-03-14T08:57:35;0.93;;;0.93;;
22378;SDS011;11357;49.990;7.370;2023-03-14T09:00:01;2.60;;;1.47;;
22378;SDS011;11357;49.990;7.370;2023-03-14T09:02:31;0.97;;;0.97;;
22378;SDS011;11357;49.990;7.370;2023-03-14T09:04:56;1.90;;;1.83;;
22378;SDS011;11357;49.990;7.370;2023-03-14T09:07:22;0.40;;;0.30;;
22378;SDS011;11357;49.990;7.370;2023-03-14T09:09:48;25.00;;;18.57;;
22378;SDS011;11357;49.990;7.370;2023-03-14T09:12:13;0.80;;;0.80;;
22378;SDS011;11357;49.990;7.370;2023-03-14T09:14:39;1.23;;;1.23;;
22378;SDS011;11357;49.990;7.370;2023-03-14T09:17:05;0.60;;;0.60;;
22378;SDS011;11357;49.990;7.370;2023-03-14T09:19:31;8.40;;;8.03;;
22378;SDS011;11357;49.990;7.370;2023-03-14T09:21:56;0.77;;;0.77;;
22378;SDS011;11357;49.990;7.370;2023-03-14T09:24:22;1.33;;;1.33;;
22378;SDS011;11357;49.990;7.370;2023-03-14T09:26:48;3.10;;;3.00;;
22378;SDS011;11357;49.990;7.370;2023-03-14T09:29:13;7.13;;;6.83;;
22378;SDS011;11357;49.990;7.370;2023-03-14T09:31:39;17.73;;;16.87;;
22378;SDS011;11357;49.990;7.370;2023-03-14T09:34:05;8.03;;;7.70;;
22378;SDS011;11357;49.990;7.370;2023-03-14T09:36:31;52.07;;;49.40;;
22378;SDS011;11357;49.990;7.370;2023-03-14T09:38:56;24.10;;;22.83;;
22378;SDS011;11357;49.990;7.370;2023-03-14T09:44:08;70.17;;;65.73;;
22378;SDS011;11357;49.990;7.370;2023-03-14T09:46:53;24.13;;;22.90;;
22378;SDS011;11357;49.990;7.370;2023-03-14T09:49:30;147.30;;;137.30;;
22378;SDS011;11357;49.990;7.370;2023-03-14T09:52:05;26.33;;;24.83;;
22378;SDS011;11357;49.990;7.370;2023-03-14T09:57:14;8.30;;;7.77;;
22378;SDS011;11357;49.990;7.370;2023-03-14T09:59:43;29.73;;;28.13;;
22378;SDS011;11357;49.990;7.370;2023-03-14T10:04:44;128.53;;;120.63;;
22378;SDS011;11357;49.990;7.370;2023-03-14T10:07:13;220.33;;;206.17;;
22378;SDS011;11357;49.990;7.370;2023-03-14T10:09:50;67.03;;;62.60;;
22378;SDS011;11357;49.990;7.370;2023-03-14T10:12:17;207.33;;;193.27;;
22378;SDS011;11357;49.990;7.370;2023-03-14T10:14:48;131.17;;;123.37;;
22378;SDS011;11357;49.990;7.370;2023-03-14T10:17:15;142.30;;;131.87;;
22378;SDS011;11357;49.990;7.370;2023-03-14T10:22:18;47.87;;;44.60;;
22378;SDS011;11357;49.990;7.370;2023-03-14T10:24:46;156.37;;;145.43;;
22378;SDS011;11357;49.990;7.370;2023-03-14T10:27:42;103.87;;;97.10;;
22378;SDS011;11357;49.990;7.370;2023-03-14T10:30:14;30.33;;;28.73;;
22378;SDS011;11357;49.990;7.370;2023-03-14T10:32:54;138.33;;;129.97;;
22378;SDS011;11357;49.990;7.370;2023-03-14T10:35:21;46.53;;;44.03;;
22378;SDS011;11357;49.990;7.370;2023-03-14T10:37:50;43.57;;;39.07;;
22378;SDS011;11357;49.990;7.370;2023-03-14T10:40:28;38.63;;;35.73;;
22378;SDS011;11357;49.990;7.370;2023-03-14T10:43:05;156.47;;;145.90;;
22378;SDS011;11357;49.990;7.370;2023-03-14T10:48:05;366.40;;;58.73;;
22378;SDS011;11357;49.990;7.370;2023-03-14T10:50:55;1.40;;;1.30;;
22378;SDS011;11357;49.990;7.370;2023-03-14T10:53:23;22.80;;;20.33;;
22378;SDS011;11357;49.990;7.370;2023-03-14T10:55:49;1.10;;;1.10;;
22378;SDS011;11357;49.990;7.370;2023-03-14T10:58:19;0.50;;;0.50;;
22378;SDS011;11357;49.990;7.370;2023-03-14T11:01:01;1.60;;;0.90;;
22378;SDS011;11357;49.990;7.370;2023-03-14T11:03:54;0.40;;;0.40;;
22378;SDS011;11357;49.990;7.370;2023-03-14T11:06:36;2.67;;;2.47;;
22378;SDS011;11357;49.990;7.370;2023-03-14T11:09:12;0.80;;;0.80;;
22378;SDS011;11357;49.990;7.370;2023-03-14T11:11:45;25.37;;;18.90;;
22378;SDS011;11357;49.990;7.370;2023-03-14T11:14:18;380.13;;;87.10;;
22378;SDS011;11357;49.990;7.370;2023-03-14T11:17:02;0.63;;;0.63;;
22378;SDS011;11357;49.990;7.370;2023-03-14T11:19:55;1.07;;;1.07;;
22378;SDS011;11357;49.990;7.370;2023-03-14T11:22:55;0.40;;;0.40;;
22378;SDS011;11357;49.990;7.370;2023-03-14T11:31:03;0.47;;;0.47;;
22378;SDS011;11357;49.990;7.370;2023-03-14T11:34:00;0.50;;;0.50;;
22378;SDS011;11357;49.990;7.370;2023-03-14T11:36:41;0.50;;;0.50;;
22378;SDS011;11357;49.990;7.370;2023-03-14T11:39:11;0.73;;;0.73;;
22378;SDS011;11357;49.990;7.370;2023-03-14T11:41:41;0.50;;;0.50;;
22378;SDS011;11357;49.990;7.370;2023-03-14T11:44:24;0.67;;;0.67;;
22378;SDS011;11357;49.990;7.370;2023-03-14T11:55:28;0.67;;;0.67;;
22378;SDS011;11357;49.990;7.370;2023-03-14T11:58:01;1.83;;;1.30;;
22378;SDS011;11357;49.990;7.370;2023-03-14T12:00:34;0.90;;;0.90;;
22378;SDS011;11357;49.990;7.370;2023-03-14T12:08:51;5.07;;;3.57;;
22378;SDS011;11357;49.990;7.370;2023-03-14T12:14:03;2.47;;;0.93;;
22378;SDS011;11357;49.990;7.370;2023-03-14T12:16:54;1.27;;;1.17;;
22378;SDS011;11357;49.990;7.370;2023-03-14T12:21:52;2.53;;;2.37;;
22378;SDS011;11357;49.990;7.370;2023-03-14T12:24:25;1.87;;;1.27;;
22378;SDS011;11357;49.990;7.370;2023-03-14T12:26:56;1.40;;;1.30;;
22378;SDS011;11357;49.990;7.370;2023-03-14T12:29:26;1.97;;;1.00;;
22378;SDS011;11357;49.990;7.370;2023-03-14T12:34:34;1.80;;;1.70;;
22378;SDS011;11357;49.990;7.370;2023-03-14T12:50:29;2.10;;;1.83;;
22378;SDS011;11357;49.990;7.370;2023-03-14T13:01:14;2.20;;;2.00;;
22378;SDS011;11357;49.990;7.370;2023-03-14T13:03:46;3.20;;;1.70;;
22378;SDS011;11357;49.990;7.370;2023-03-14T13:06:13;2.77;;;2.00;;
22378;SDS011;11357;49.990;7.370;2023-03-14T13:08:58;2.03;;;1.83;;
22378;SDS011;11357;49.990;7.370;2023-03-14T13:14:29;2.30;;;1.80;;
22378;SDS011;11357;49.990;7.370;2023-03-14T13:16:58;1.77;;;1.50;;
22378;SDS011;11357;49.990;7.370;2023-03-14T13:19:28;2.03;;;1.60;;
22378;SDS011;11357;49.990;7.370;2023-03-14T13:22:05;2.97;;;1.80;;
22378;SDS011;11357;49.990;7.370;2023-03-14T13:24:41;3.40;;;2.63;;
22378;SDS011;11357;49.990;7.370;2023-03-14T13:27:16;2.47;;;2.27;;
22378;SDS011;11357;49.990;7.370;2023-03-14T13:29:45;2.10;;;1.90;;
22378;SDS011;11357;49.990;7.370;2023-03-14T13:32:19;4.47;;;2.20;;
22378;SDS011;11357;49.990;7.370;2023-03-14T13:34:46;3.20;;;2.50;;
22378;SDS011;11357;49.990;7.370;2023-03-14T13:37:20;3.30;;;2.03;;
22378;SDS011;11357;49.990;7.370;2023-03-14T13:39:54;2.37;;;2.00;;
22378;SDS011;11357;49.990;7.370;2023-03-14T13:42:24;4.83;;;2.20;;
22378;SDS011;11357;49.990;7.370;2023-03-14T13:44:52;3.90;;;1.90;;
22378;SDS011;11357;49.990;7.370;2023-03-14T13:47:20;2.97;;;2.07;;
22378;SDS011;11357;49.990;7.370;2023-03-14T13:49:48;2.47;;;1.80;;
22378;SDS011;11357;49.990;7.370;2023-03-14T13:52:30;2.83;;;1.87;;
22378;SDS011;11357;49.990;7.370;2023-03-14T13:54:57;3.47;;;1.83;;
22378;SDS011;11357;49.990;7.370;2023-03-14T13:57:24;2.43;;;1.83;;
22378;SDS011;11357;49.990;7.370;2023-03-14T14:00:04;2.50;;;1.60;;
22378;SDS011;11357;49.990;7.370;2023-03-14T14:02:33;4.00;;;1.80;;
22378;SDS011;11357;49.990;7.370;2023-03-14T14:05:01;2.00;;;1.50;;
22378;SDS011;11357;49.990;7.370;2023-03-14T14:07:27;3.97;;;1.63;;
22378;SDS011;11357;49.990;7.370;2023-03-14T14:09:53;1.30;;;1.20;;
22378;SDS011;11357;49.990;7.370;2023-03-14T14:12:22;3.43;;;1.30;;
22378;SDS011;11357;49.990;7.370;2023-03-14T14:17:29;1.90;;;1.20;;
22378;SDS011;11357;49.990;7.370;2023-03-14T14:20:00;4.53;;;1.27;;
22378;SDS011;11357;49.990;7.370;2023-03-14T14:22:28;4.67;;;1.27;;
22378;SDS011;11357;49.990;7.370;2023-03-14T14:24:55;3.30;;;2.03;;
22378;SDS011;11357;49.990;7.370;2023-03-14T14:27:28;2.20;;;1.30;;
22378;SDS011;11357;49.990;7.370;2023-03-14T14:30:04;1.93;;;1.30;;
22378;SDS011;11357;49.990;7.370;2023-03-14T14:32:42;1.43;;;1.30;;
22378;SDS011;11357;49.990;7.370;2023-03-14T14:35:10;1.40;;;0.90;;
22378;SDS011;11357;49.990;7.370;2023-03-14T14:37:47;3.23;;;1.20;;
22378;SDS011;11357;49.990;7.370;2023-03-14T14:40:18;3.07;;;1.17;;
22378;SDS011;11357;49.990;7.370;2023-03-14T14:42:45;3.13;;;1.30;;
22378;SDS011;11357;49.990;7.370;2023-03-14T14:45:19;4.63;;;1.30;;
22378;SDS011;11357;49.990;7.370;2023-03-14T14:48:02;1.40;;;1.03;;
22378;SDS011;11357;49.990;7.370;2023-03-14T14:50:37;2.47;;;1.10;;
22378;SDS011;11357;49.990;7.370;2023-03-14T14:53:19;1.83;;;1.13;;
22378;SDS011;11357;49.990;7.370;2023-03-14T14:56:25;6.33;;;1.57;;
22378;SDS011;11357;49.990;7.370;2023-03-14T14:58:55;1.63;;;1.00;;
22378;SDS011;11357;49.990;7.370;2023-03-14T15:01:31;6.03;;;1.30;;
22378;SDS011;11357;49.990;7.370;2023-03-14T15:03:59;3.73;;;1.00;;
22378;SDS011;11357;49.990;7.370;2023-03-14T15:06:26;4.87;;;1.67;;
22378;SDS011;11357;49.990;7.370;2023-03-14T15:08:54;5.37;;;1.33;;
22378;SDS011;11357;49.990;7.370;2023-03-14T15:11:24;5.53;;;1.10;;
22378;SDS011;11357;49.990;7.370;2023-03-14T15:13:51;1.83;;;1.13;;
22378;SDS011;11357;49.990;7.370;2023-03-14T15:16:18;3.40;;;1.10;;
22378;SDS011;11357;49.990;7.370;2023-03-14T15:18:56;4.50;;;1.20;;
22378;SDS011;11357;49.990;7.370;2023-03-14T15:21:23;4.73;;;1.30;;
22378;SDS011;11357;49.990;7.370;2023-03-14T15:23:50;2.30;;;1.20;;
22378;SDS011;11357;49.990;7.370;2023-03-14T15:26:17;2.40;;;1.03;;
22378;SDS011;11357;49.990;7.370;2023-03-14T15:28:45;2.80;;;1.07;;
22378;SDS011;11357;49.990;7.370;2023-03-14T15:31:12;5.90;;;1.43;;
22378;SDS011;11357;49.990;7.370;2023-03-14T15:33:38;2.20;;;1.10;;
22378;SDS011;11357;49.990;7.370;2023-03-14T15:36:05;4.37;;;1.30;;
22378;SDS011;11357;49.990;7.370;2023-03-14T15:38:39;3.83;;;1.20;;
22378;SDS011;11357;49.990;7.370;2023-03-14T15:41:04;2.33;;;1.20;;
22378;SDS011;11357;49.990;7.370;2023-03-14T15:43:30;4.10;;;1.50;;
22378;SDS011;11357;49.990;7.370;2023-03-14T15:45:56;2.73;;;1.13;;
22378;SDS011;11357;49.990;7.370;2023-03-14T15:48:22;4.03;;;1.10;;
22378;SDS011;11357;49.990;7.370;2023-03-14T15:50:47;2.47;;;1.23;;
22378;SDS011;11357;49.990;7.370;2023-03-14T15:53:13;1.97;;;1.17;;
22378;SDS011;11357;49.990;7.370;2023-03-14T15:55:39;3.33;;;1.30;;
22378;SDS011;11357;49.990;7.370;2023-03-14T15:58:05;2.73;;;1.00;;
22378;SDS011;11357;49.990;7.370;2023-03-14T16:00:30;3.30;;;1.27;;
22378;SDS011;11357;49.990;7.370;2023-03-14T16:02:57;2.30;;;1.10;;
22378;SDS011;11357;49.990;7.370;2023-03-14T16:05:22;2.90;;;1.27;;
22378;SDS011;11357;49.990;7.370;2023-03-14T16:07:48;6.20;;;1.50;;